Time;durP1;ratioP1;P1;durP2;ratioP2;P2;SDS_P1;SDS_P2;PMS_P1;PMS_P2;Temp;Humidity;BMP_temperature;BMP_pressure;BME280_temperature;BME280_humidity;BME280_pressure;Samples;Min_cycle;Max_cycle;Signal;HPM_P1;HPM_P2
2023/05/16 00:01:34;;;;;;;0.37;0.37;;;;;;;10.78;87.10;99174.34;5134432;28;20047;-62
2023/05/16 00:04:03;;;;;;;0.55;0.55;;;;;;;10.79;87.27;99175.22;5134686;28;20609;-63
2023/05/16 00:06:34;;;;;;;0.38;0.38;;;;;;;10.81;86.41;99176.03;5134431;28;20050;-62
2023/05/16 00:09:03;;;;;;;0.95;0.73;;;;;;;10.82;86.93;99171.78;5134694;28;20067;-62
2023/05/16 00:11:32;;;;;;;1.20;1.13;;;;;;;10.82;86.29;99166.69;5134281;28;20050;-61
2023/05/16 00:14:01;;;;;;;0.57;0.57;;;;;;;10.80;86.51;99176.06;5134589;28;20130;-62
2023/05/16 00:16:30;;;;;;;0.40;0.40;;;;;;;10.76;86.60;99170.97;5134284;28;20283;-62
2023/05/16 00:18:59;;;;;;;0.30;0.30;;;;;;;10.78;86.28;99178.59;5134295;28;20050;-62
2023/05/16 00:21:28;;;;;;;0.50;0.50;;;;;;;10.75;86.38;99170.97;5136276;27;20123;-62
2023/05/16 00:23:59;;;;;;;0.53;0.53;;;;;;;10.75;86.48;99168.41;5138434;27;20057;-62
2023/05/16 00:26:28;;;;;;;9.40;1.60;;;;;;;10.76;86.53;99168.44;5138280;27;20047;-62
2023/05/16 00:28:56;;;;;;;0.55;0.55;;;;;;;10.73;86.33;99163.34;5138506;27;20126;-62
2023/05/16 00:31:25;;;;;;;0.35;0.35;;;;;;;10.72;86.23;99159.09;5138827;27;20035;-62
2023/05/16 00:33:54;;;;;;;0.47;0.47;;;;;;;10.73;86.09;99158.25;5138194;27;20047;-62
2023/05/16 00:36:25;;;;;;;0.45;0.45;;;;;;;10.74;86.57;99159.09;5138120;27;20797;-62
2023/05/16 00:38:55;;;;;;;0.68;0.68;;;;;;;10.69;86.23;99166.78;5119529;27;20072;-62
2023/05/16 00:41:25;;;;;;;1.33;1.08;;;;;;;10.71;86.54;99170.16;5119705;27;20523;-62
2023/05/16 00:43:54;;;;;;;1.05;1.00;;;;;;;10.70;86.39;99170.19;5138029;27;20385;-62
2023/05/16 00:46:23;;;;;;;0.57;0.57;;;;;;;10.73;86.15;99168.44;5119723;27;20516;-62
2023/05/16 00:48:52;;;;;;;0.30;0.30;;;;;;;10.76;86.73;99168.44;5138082;27;20480;-62
2023/05/16 00:51:21;;;;;;;0.47;0.47;;;;;;;10.74;86.23;99159.94;5119516;27;20063;-62
2023/05/16 00:53:50;;;;;;;0.40;0.40;;;;;;;10.75;86.37;99161.63;5119608;27;20039;-62
2023/05/16 00:56:20;;;;;;;1.65;0.60;;;;;;;10.81;86.66;99159.88;5138015;27;20080;-63
2023/05/16 00:58:50;;;;;;;0.50;0.50;;;;;;;10.82;86.30;99166.69;5137677;27;20050;-62
2023/05/16 01:01:21;;;;;;;0.30;0.30;;;;;;;10.82;86.78;99164.13;5137973;27;20039;-62
2023/05/16 01:03:50;;;;;;;1.00;1.00;;;;;;;10.84;86.42;99155.59;5138044;27;20053;-62
2023/05/16 01:06:19;;;;;;;11.35;1.35;;;;;;;10.82;86.74;99164.13;5137832;27;20489;-62
2023/05/16 01:08:48;;;;;;;0.57;0.57;;;;;;;10.85;86.19;99152.16;5119464;27;20427;-62
2023/05/16 01:11:23;;;;;;;;;;;;;;;10.88;86.11;99161.50;5119356;27;20122;-62
2023/05/16 01:14:00;;;;;;;0.43;0.43;;;;;;;10.87;86.19;99149.63;5137437;27;19964;-63
2023/05/16 01:16:36;;;;;;;0.38;0.38;;;;;;;10.86;86.68;99147.91;5137656;27;20581;-62
2023/05/16 01:19:15;;;;;;;0.57;0.57;;;;;;;10.88;86.66;99148.72;5137610;27;20488;-62
2023/05/16 01:21:57;;;;;;;0.60;0.60;;;;;;;10.88;86.51;99151.28;5137251;27;20040;-62
2023/05/16 01:24:33;;;;;;;0.63;0.63;;;;;;;10.92;86.65;99158.06;5137162;27;20043;-62
2023/05/16 01:27:06;;;;;;;0.70;0.70;;;;;;;10.93;86.59;99159.75;5137163;27;20070;-62
2023/05/16 01:29:35;;;;;;;0.47;0.47;;;;;;;10.89;86.48;99152.97;5137094;27;20055;-61
2023/05/16 01:32:05;;;;;;;0.60;0.60;;;;;;;10.83;86.68;99153.03;5136704;27;20130;-61
2023/05/16 01:34:34;;;;;;;0.82;0.82;;;;;;;10.81;86.68;99149.66;5136844;27;20051;-62
2023/05/16 01:37:23;;;;;;;0.60;0.60;;;;;;;10.83;86.64;99138.56;5118445;27;20051;-61
2023/05/16 01:39:57;;;;;;;0.95;0.85;;;;;;;10.83;87.16;99138.56;5137318;27;20058;-61
2023/05/16 01:42:33;;;;;;;0.40;0.40;;;;;;;10.89;87.45;99142.78;5136986;27;20121;-62
2023/05/16 01:45:11;;;;;;;0.65;0.65;;;;;;;10.90;87.01;99142.75;5137183;27;20051;-61
2023/05/16 01:47:45;;;;;;;0.40;0.40;;;;;;;10.93;87.36;99146.97;5136858;27;20122;-61
2023/05/16 01:50:17;;;;;;;0.40;0.40;;;;;;;10.91;87.47;99141.06;5136836;27;20039;-62
2023/05/16 01:52:53;;;;;;;0.63;0.63;;;;;;;10.85;87.52;99139.41;5118190;27;20127;-61
2023/05/16 01:55:32;;;;;;;0.40;0.40;;;;;;;10.81;87.06;99145.41;5118453;27;20051;-62
2023/05/16 01:58:10;;;;;;;0.28;0.28;;;;;;;10.78;87.38;99146.28;5136640;27;20051;-62
2023/05/16 02:00:40;;;;;;;0.63;0.63;;;;;;;10.77;87.62;99134.38;5136520;27;20127;-61
2023/05/16 02:03:09;;;;;;;0.80;0.80;;;;;;;10.75;87.50;99135.25;5136492;27;20085;-62
2023/05/16 02:05:39;;;;;;;0.52;0.52;;;;;;;10.76;87.22;99142.91;5136766;27;20119;-62
2023/05/16 02:08:10;;;;;;;0.55;0.55;;;;;;;10.82;87.83;99136.03;5118296;27;20051;-62
2023/05/16 02:10:40;;;;;;;0.85;0.85;;;;;;;10.82;88.17;99141.16;5118043;27;20054;-61
2023/05/16 02:13:10;;;;;;;2.42;1.73;;;;;;;10.88;87.98;99130.88;5136403;27;20039;-62
2023/05/16 02:15:39;;;;;;;0.63;0.63;;;;;;;10.86;87.91;99127.47;5118292;27;20043;-62
2023/05/16 02:18:08;;;;;;;0.40;0.40;;;;;;;10.84;87.59;99130.06;5117966;27;20118;-62
2023/05/16 02:20:37;;;;;;;0.47;0.40;;;;;;;10.84;87.56;99124.97;5136032;27;20813;-62
2023/05/16 02:23:06;;;;;;;1.00;0.90;;;;;;;10.86;87.81;99117.28;5136057;27;20047;-62
2023/05/16 02:25:35;;;;;;;1.45;0.90;;;;;;;10.86;87.94;99127.47;5117711;27;20035;-62
2023/05/16 02:28:03;;;;;;;0.45;0.45;;;;;;;10.81;87.66;99132.66;5118056;27;20152;-62
2023/05/16 02:30:34;;;;;;;0.40;0.40;;;;;;;10.73;88.18;99125.06;5135943;27;20039;-62
2023/05/16 02:33:03;;;;;;;1.48;1.25;;;;;;;10.85;87.56;99141.09;5117425;27;20039;-62
2023/05/16 02:35:32;;;;;;;0.57;0.57;;;;;;;10.75;87.88;99138.66;5135817;27;20043;-62
2023/05/16 02:38:01;;;;;;;1.13;1.02;;;;;;;10.78;88.06;99141.19;5135664;27;20086;-62
2023/05/16 02:40:30;;;;;;;0.35;0.35;;;;;;;10.79;87.93;99126.72;5135664;27;20047;-62
2023/05/16 02:42:58;;;;;;;0.93;0.93;;;;;;;10.74;88.12;99110.59;5135546;27;20046;-62
2023/05/16 02:45:27;;;;;;;0.75;0.75;;;;;;;10.86;88.16;99130.03;5134507;27;20435;-62
2023/05/16 02:47:58;;;;;;;0.30;0.30;;;;;;;10.90;88.18;99131.69;5136055;27;20116;-62
2023/05/16 02:50:27;;;;;;;0.63;0.63;;;;;;;10.86;88.30;99130.88;5135482;27;20511;-62
2023/05/16 02:52:55;;;;;;;0.53;0.53;;;;;;;10.85;88.17;99126.63;5117343;27;20079;-62
2023/05/16 02:55:25;;;;;;;0.40;0.40;;;;;;;10.83;88.52;99125.81;5135415;27;20043;-62
2023/05/16 02:57:54;;;;;;;0.50;0.50;;;;;;;10.83;88.25;99112.19;5136262;27;20086;-62
2023/05/16 03:00:23;;;;;;;5.05;1.95;;;;;;;10.82;88.43;99115.63;5135629;27;20039;-62
2023/05/16 03:02:51;;;;;;;0.90;0.90;;;;;;;10.83;88.43;99124.97;5135365;27;20130;-62
2023/05/16 03:05:22;;;;;;;0.82;0.82;;;;;;;10.86;88.26;99122.38;5135514;27;20271;-62
2023/05/16 03:07:54;;;;;;;0.30;0.30;;;;;;;10.86;88.16;99125.78;5135147;27;20050;-62
2023/05/16 03:10:23;;;;;;;0.60;0.60;;;;;;;10.89;88.46;99137.66;5135739;27;20035;-62
2023/05/16 03:12:52;;;;;;;0.30;0.30;;;;;;;10.92;88.32;99143.56;5135288;27;20279;-62
2023/05/16 03:15:23;;;;;;;0.28;0.28;;;;;;;10.95;88.44;99142.69;5135356;27;20279;-62
2023/05/16 03:17:52;;;;;;;1.92;1.17;;;;;;;10.90;88.05;99144.44;5135150;27;20092;-62
2023/05/16 03:20:22;;;;;;;0.30;0.30;;;;;;;10.91;88.44;99141.06;5116615;27;20118;-61
2023/05/16 03:22:51;;;;;;;0.40;0.40;;;;;;;10.89;88.48;99140.22;5116968;27;20275;-62
2023/05/16 03:25:20;;;;;;;0.25;0.25;;;;;;;10.89;88.45;99151.28;5134812;27;20446;-62
2023/05/16 03:27:49;;;;;;;0.30;0.30;;;;;;;10.90;88.08;99150.41;5116434;27;20043;-62
2023/05/16 03:30:20;;;;;;;0.30;0.30;;;;;;;10.84;88.43;99139.44;5135146;27;20043;-62
2023/05/16 03:32:49;;;;;;;0.75;0.75;;;;;;;10.80;87.89;99133.50;5134609;27;20118;-62
2023/05/16 03:35:17;;;;;;;0.40;0.40;;;;;;;10.77;88.16;99144.56;5134741;27;20110;-62
2023/05/16 03:37:48;;;;;;;0.30;0.30;;;;;;;10.74;88.25;99142.06;5112699;28;20048;-62
2023/05/16 03:40:17;;;;;;;0.60;0.60;;;;;;;10.73;88.57;99132.72;5114171;28;20051;-62
2023/05/16 03:42:46;;;;;;;0.43;0.43;;;;;;;10.73;88.51;99126.75;5113267;28;20047;-62
2023/05/16 03:45:14;;;;;;;1.38;0.75;;;;;;;10.78;88.54;99130.97;5114087;28;20035;-62
2023/05/16 03:47:44;;;;;;;0.33;0.33;;;;;;;10.80;88.42;99127.56;5113157;28;20035;-62
2023/05/16 03:50:12;;;;;;;0.40;0.40;;;;;;;10.81;88.65;99124.13;5114095;28;20268;-63
2023/05/16 03:52:41;;;;;;;0.50;0.50;;;;;;;10.83;88.81;99107.09;5113970;28;20036;-63
2023/05/16 03:55:13;;;;;;;0.43;0.43;;;;;;;10.88;88.87;99110.44;5113594;28;20036;-62
2023/05/16 03:57:42;;;;;;;0.73;0.73;;;;;;;10.91;88.51;99097.66;5112799;28;20126;-62
2023/05/16 04:00:12;;;;;;;1.27;0.73;;;;;;;10.85;88.35;99095.16;5114178;28;20397;-62
2023/05/16 04:02:42;;;;;;;0.60;0.60;;;;;;;10.84;88.44;99091.78;5113999;28;20085;-62
2023/05/16 04:05:12;;;;;;;0.50;0.50;;;;;;;10.91;88.62;99092.53;5113883;28;20106;-62
2023/05/16 04:07:41;;;;;;;0.50;0.50;;;;;;;10.92;88.31;99096.81;5113876;28;20130;-62
2023/05/16 04:10:13;;;;;;;0.30;0.30;;;;;;;10.94;88.89;99100.16;5113913;28;20039;-62
2023/05/16 04:12:43;;;;;;;0.30;0.30;;;;;;;10.97;88.98;99100.97;5114177;28;20288;-62
2023/05/16 04:15:12;;;;;;;0.30;0.30;;;;;;;11.00;88.71;99094.97;5113950;28;20072;-62
2023/05/16 04:17:41;;;;;;;0.50;0.50;;;;;;;10.99;88.66;99098.41;5113781;28;20126;-62
2023/05/16 04:20:13;;;;;;;0.30;0.30;;;;;;;10.94;88.57;99083.13;5113775;28;20043;-63
2023/05/16 04:22:42;;;;;;;0.25;0.25;;;;;;;11.03;88.85;99100.06;5113723;28;20084;-63
2023/05/16 04:25:13;;;;;;;0.40;0.40;;;;;;;11.09;88.86;99099.97;5113722;28;20067;-63
2023/05/16 04:27:42;;;;;;;0.40;0.40;;;;;;;11.17;88.66;99099.03;5113667;28;20052;-62
2023/05/16 04:30:13;;;;;;;0.60;0.60;;;;;;;11.20;88.54;99088.78;5113762;28;20088;-62
2023/05/16 04:32:42;;;;;;;1.02;0.82;;;;;;;11.21;88.54;99094.72;5113608;28;20455;-63
2023/05/16 04:35:10;;;;;;;0.40;0.40;;;;;;;11.23;88.92;99098.94;5113474;28;20063;-63
2023/05/16 04:37:40;;;;;;;0.47;0.37;;;;;;;11.32;88.75;99109.06;5120393;28;20085;-62
2023/05/16 04:40:10;;;;;;;0.40;0.40;;;;;;;11.32;88.77;99119.28;5134185;28;20110;-62
2023/05/16 04:42:40;;;;;;;0.30;0.30;;;;;;;11.34;88.56;99121.81;5134472;28;20055;-62
2023/05/16 04:45:11;;;;;;;0.82;0.75;;;;;;;11.35;88.32;99109.00;5134352;28;20047;-62
2023/05/16 04:47:40;;;;;;;0.57;0.57;;;;;;;11.38;88.33;99108.13;5134240;28;20049;-62
2023/05/16 04:50:10;;;;;;;0.98;0.98;;;;;;;11.39;88.59;99099.59;5134007;28;20045;-62
2023/05/16 04:52:39;;;;;;;0.50;0.50;;;;;;;11.36;88.48;99099.63;5133859;28;20043;-63
2023/05/16 04:55:08;;;;;;;0.63;0.63;;;;;;;11.34;88.28;99096.25;5133883;28;20133;-62
2023/05/16 04:57:37;;;;;;;0.40;0.40;;;;;;;11.38;88.19;99092.78;5134118;28;20051;-62
2023/05/16 05:00:09;;;;;;;0.87;0.83;;;;;;;11.37;88.38;99096.22;5133884;28;20043;-63
2023/05/16 05:02:38;;;;;;;0.40;0.40;;;;;;;11.48;87.80;99099.47;5133950;28;20070;-62
2023/05/16 05:05:08;;;;;;;0.50;0.50;;;;;;;11.54;88.17;99107.03;5134213;28;20042;-62
2023/05/16 05:07:37;;;;;;;0.70;0.70;;;;;;;11.56;87.97;99123.22;5134288;27;20057;-62
2023/05/16 05:10:07;;;;;;;0.50;0.50;;;;;;;11.67;88.07;99131.56;5137549;27;20477;-62
2023/05/16 05:12:36;;;;;;;0.57;0.57;;;;;;;11.77;87.84;99130.63;5137435;27;20047;-63
2023/05/16 05:15:07;;;;;;;0.40;0.40;;;;;;;11.84;87.55;99134.75;5137429;27;20114;-62
2023/05/16 05:17:37;;;;;;;0.70;0.70;;;;;;;11.81;87.54;99134.81;5137358;27;20047;-62
2023/05/16 05:20:09;;;;;;;0.65;0.65;;;;;;;11.79;87.29;99133.97;5137322;27;20112;-63
2023/05/16 05:22:38;;;;;;;0.50;0.50;;;;;;;11.84;87.20;99134.75;5137321;27;20508;-63
2023/05/16 05:25:07;;;;;;;0.70;0.70;;;;;;;11.93;87.04;99138.88;5137793;27;20051;-63
2023/05/16 05:27:36;;;;;;;0.47;0.47;;;;;;;12.02;86.96;99152.38;5137138;27;20067;-62
2023/05/16 05:30:08;;;;;;;0.50;0.50;;;;;;;12.08;86.40;99154.00;5137091;27;20096;-62
2023/05/16 05:32:37;;;;;;;0.50;0.50;;;;;;;12.18;86.77;99154.72;5137365;27;20051;-62
2023/05/16 05:35:07;;;;;;;0.30;0.30;;;;;;;12.27;86.50;99159.69;5137604;27;20070;-62
2023/05/16 05:37:35;;;;;;;0.50;0.50;;;;;;;12.27;86.44;99163.09;5136661;27;20336;-62
2023/05/16 05:40:05;;;;;;;2.60;1.15;;;;;;;12.37;86.40;99171.47;5136884;27;20127;-62
2023/05/16 05:42:34;;;;;;;0.50;0.50;;;;;;;12.47;86.13;99162.75;5136844;27;20043;-62
2023/05/16 05:45:03;;;;;;;0.75;0.70;;;;;;;12.57;85.89;99159.19;5136824;27;20126;-62
2023/05/16 05:47:33;;;;;;;0.50;0.50;;;;;;;12.66;85.39;99153.91;5136830;27;20039;-63
2023/05/16 05:50:03;;;;;;;0.60;0.60;;;;;;;12.74;85.22;99149.50;5136699;27;20130;-63
2023/05/16 05:52:32;;;;;;;0.80;0.65;;;;;;;12.83;85.02;99145.91;5136949;27;20042;-62
2023/05/16 05:55:01;;;;;;;0.47;0.47;;;;;;;12.89;84.60;99146.63;5136538;27;20054;-63
2023/05/16 05:57:30;;;;;;;0.40;0.40;;;;;;;12.99;84.10;99145.59;5136844;27;20039;-62
2023/05/16 05:59:59;;;;;;;0.40;0.40;;;;;;;12.93;83.94;99130.38;5136726;27;20067;-62
2023/05/16 06:02:28;;;;;;;0.50;0.50;;;;;;;12.93;83.57;99140.59;5136439;27;20138;-63
2023/05/16 06:04:58;;;;;;;0.50;0.50;;;;;;;12.99;83.63;99132.78;5118304;27;20051;-62
2023/05/16 06:07:27;;;;;;;0.40;0.40;;;;;;;12.99;83.55;99127.66;5136703;27;20055;-62
2023/05/16 06:09:56;;;;;;;1.07;0.70;;;;;;;12.96;83.45;99122.59;5117769;27;20090;-62
2023/05/16 06:12:25;;;;;;;7.88;1.20;;;;;;;13.03;83.57;99125.91;5136235;27;20088;-63
2023/05/16 06:14:54;;;;;;;0.30;0.30;;;;;;;13.13;83.60;99125.72;5136044;27;20042;-62
2023/05/16 06:17:23;;;;;;;0.77;0.77;;;;;;;13.25;83.85;99145.97;5136210;27;20489;-62
2023/05/16 06:19:52;;;;;;;0.95;0.77;;;;;;;13.29;83.39;99128.81;5135703;27;20047;-63
2023/05/16 06:22:22;;;;;;;4.33;2.00;;;;;;;13.36;83.50;99128.63;5136034;27;20130;-62
2023/05/16 06:24:50;;;;;;;0.52;0.52;;;;;;;13.46;83.34;99115.66;5136173;27;20458;-63
2023/05/16 06:27:19;;;;;;;0.70;0.70;;;;;;;13.57;83.15;99118.81;5135784;27;20059;-62
2023/05/16 06:29:48;;;;;;;0.77;0.77;;;;;;;13.64;83.08;99120.38;5117622;27;20047;-62
2023/05/16 06:32:17;;;;;;;0.60;0.60;;;;;;;13.72;82.88;99121.03;5135899;27;20035;-63
2023/05/16 06:34:46;;;;;;;1.23;0.77;;;;;;;13.79;82.76;99112.34;5135704;27;20042;-63
2023/05/16 06:37:14;;;;;;;8.93;1.33;;;;;;;13.82;82.49;99120.78;5135442;27;20092;-63
2023/05/16 06:39:45;;;;;;;1.63;0.77;;;;;;;13.84;82.14;99133.59;5135687;27;20043;-62
2023/05/16 06:42:13;;;;;;;0.40;0.40;;;;;;;13.86;81.89;99137.81;5135605;27;20043;-63
2023/05/16 06:44:43;;;;;;;3.03;1.58;;;;;;;13.92;81.41;99139.38;5117556;27;20035;-62
2023/05/16 06:47:11;;;;;;;0.37;0.37;;;;;;;14.00;81.91;99142.63;5135506;27;20031;-62
2023/05/16 06:49:40;;;;;;;2.55;1.48;;;;;;;14.05;81.79;99140.78;5135693;27;20121;-62
2023/05/16 06:52:10;;;;;;;0.50;0.50;;;;;;;14.12;80.92;99132.06;5135502;27;20039;-63
2023/05/16 06:54:39;;;;;;;0.50;0.50;;;;;;;14.18;80.85;99124.22;5135586;27;20964;-62
2023/05/16 06:57:09;;;;;;;2.03;1.00;;;;;;;14.24;80.77;99116.38;5135048;27;20384;-63
2023/05/16 06:59:38;;;;;;;0.75;0.75;;;;;;;14.28;80.91;99123.13;5135043;27;20288;-62
2023/05/16 07:02:07;;;;;;;1.10;1.00;;;;;;;14.37;80.57;99114.38;5135169;27;20048;-62
2023/05/16 07:04:36;;;;;;;1.02;0.93;;;;;;;14.50;80.26;99113.19;5135267;27;20043;-62
2023/05/16 07:07:06;;;;;;;0.50;0.50;;;;;;;14.56;80.54;99118.19;5135148;27;20511;-62
2023/05/16 07:09:35;;;;;;;0.40;0.40;;;;;;;14.70;80.30;99122.06;5135375;27;20427;-63
2023/05/16 07:12:04;;;;;;;0.40;0.40;;;;;;;14.81;80.04;99128.63;5135063;27;20043;-63
2023/05/16 07:14:34;;;;;;;1.48;0.90;;;;;;;14.80;79.29;99119.25;5134890;27;20039;-62
2023/05/16 07:17:03;;;;;;;1.63;1.25;;;;;;;14.80;78.88;99116.69;5135611;27;20039;-62
2023/05/16 07:19:32;;;;;;;0.73;0.73;;;;;;;14.83;78.48;99122.56;5134905;27;20047;-62
2023/05/16 07:22:02;;;;;;;;;;;;;;;14.89;78.48;99117.28;5135563;27;20484;-62
2023/05/16 07:24:30;;;;;;;0.80;0.80;;;;;;;14.94;78.29;99109.44;5135147;27;20288;-63
2023/05/16 07:26:59;;;;;;;1.65;0.68;;;;;;;14.94;77.79;99109.44;5133262;27;20116;-63
2023/05/16 07:29:29;;;;;;;0.90;0.90;;;;;;;14.91;77.45;99109.50;5135069;27;20035;-63
2023/05/16 07:31:59;;;;;;;;;;;;;;;14.90;77.73;99108.66;5134506;27;20263;-63
2023/05/16 07:34:27;;;;;;;0.85;0.82;;;;;;;14.90;77.83;99107.84;5134496;27;19919;-63
2023/05/16 07:36:56;;;;;;;0.88;0.75;;;;;;;14.94;77.81;99114.59;5115442;27;20039;-62
2023/05/16 07:39:26;;;;;;;0.80;0.80;;;;;;;14.99;77.87;99117.88;5134105;27;20043;-62
2023/05/16 07:41:55;;;;;;;0.55;0.55;;;;;;;15.06;78.21;99104.81;5133796;27;20080;-63
2023/05/16 07:44:24;;;;;;;0.60;0.60;;;;;;;15.09;77.79;99103.88;5134478;27;20039;-62
2023/05/16 07:46:53;;;;;;;1.02;0.95;;;;;;;15.11;77.83;99104.69;5134432;27;20118;-62
2023/05/16 07:49:23;;;;;;;0.70;0.70;;;;;;;15.16;78.03;99100.25;5134485;27;20047;-62
2023/05/16 07:51:52;;;;;;;0.60;0.60;;;;;;;15.15;77.97;99112.25;5134110;27;20039;-63
2023/05/16 07:54:21;;;;;;;0.70;0.70;;;;;;;15.13;78.12;99123.47;5134328;28;20027;-62
2023/05/16 07:56:50;;;;;;;0.97;0.97;;;;;;;15.14;78.02;99122.59;5134484;28;20047;-62
2023/05/16 07:59:19;;;;;;;0.53;0.53;;;;;;;15.14;78.12;99122.59;5134705;28;20047;-62
2023/05/16 08:01:48;;;;;;;0.63;0.63;;;;;;;15.09;77.38;99120.13;5134412;28;20295;-62
2023/05/16 08:04:16;;;;;;;0.63;0.63;;;;;;;15.11;77.47;99118.38;5134463;28;20293;-63
2023/05/16 08:06:47;;;;;;;1.90;1.43;;;;;;;15.07;77.71;99108.22;5134338;28;20046;-63
2023/05/16 08:09:15;;;;;;;1.08;0.98;;;;;;;15.07;77.43;99105.66;5134376;28;20283;-63
2023/05/16 08:11:45;;;;;;;1.15;1.00;;;;;;;15.06;77.49;99106.53;5134237;28;20043;-63
2023/05/16 08:14:14;;;;;;;0.90;0.90;;;;;;;15.17;77.79;99112.19;5134588;28;20031;-62
2023/05/16 08:16:43;;;;;;;2.72;1.30;;;;;;;15.18;77.57;99113.91;5134158;28;20040;-62
2023/05/16 08:19:11;;;;;;;0.63;0.63;;;;;;;15.16;77.35;99115.69;5134485;28;20374;-62
2023/05/16 08:21:40;;;;;;;1.10;0.90;;;;;;;15.22;77.74;99115.50;5134135;28;20051;-62
2023/05/16 08:24:11;;;;;;;1.35;1.23;;;;;;;15.27;77.49;99123.91;5133964;28;20035;-64
2023/05/16 08:26:40;;;;;;;0.88;0.68;;;;;;;15.34;78.05;99122.84;5134328;28;20043;-63
2023/05/16 08:29:08;;;;;;;0.60;0.60;;;;;;;15.35;77.68;99116.84;5134068;28;20047;-63
2023/05/16 08:31:37;;;;;;;1.10;1.00;;;;;;;15.36;77.72;99118.50;5134378;28;20389;-63
2023/05/16 08:34:08;;;;;;;0.80;0.80;;;;;;;15.40;77.76;99109.84;5133530;28;20043;-63
2023/05/16 08:36:37;;;;;;;1.17;0.85;;;;;;;15.45;77.11;99113.16;5131072;28;20618;-64
2023/05/16 08:39:06;;;;;;;0.50;0.50;;;;;;;15.49;77.31;99112.16;5132989;28;20134;-62
2023/05/16 08:41:36;;;;;;;2.00;1.58;;;;;;;15.46;76.96;99119.97;5134598;27;20043;-63
2023/05/16 08:44:07;;;;;;;0.70;0.70;;;;;;;15.52;76.73;99124.09;5137883;27;20075;-63
2023/05/16 08:46:37;;;;;;;0.60;0.60;;;;;;;15.56;76.89;99125.66;5137807;27;20088;-62
2023/05/16 08:49:08;;;;;;;0.45;0.45;;;;;;;15.57;77.59;99133.34;5137885;27;20039;-62
2023/05/16 08:51:38;;;;;;;0.70;0.70;;;;;;;15.59;77.30;99131.59;5138016;27;20583;-63
2023/05/16 08:54:12;;;;;;;2.45;1.50;;;;;;;15.55;77.12;99124.81;5127535;27;20493;-62
2023/05/16 08:56:43;;;;;;;1.27;1.17;;;;;;;15.55;77.64;99135.09;5117198;28;20039;-63
2023/05/16 08:59:12;;;;;;;0.65;0.65;;;;;;;15.56;77.55;99135.97;5117051;28;20051;-62
2023/05/16 09:01:41;;;;;;;1.17;1.08;;;;;;;15.59;77.76;99147.00;5117321;28;20051;-62
2023/05/16 09:04:11;;;;;;;;;;;;;;;15.62;78.19;99152.03;5130900;27;20043;-61
2023/05/16 09:06:40;;;;;;;0.50;0.50;;;;;;;15.64;78.33;99160.59;5118968;27;19920;-62
2023/05/16 09:09:11;;;;;;;1.00;0.80;;;;;;;15.64;79.08;99160.59;5133293;27;20523;-61
2023/05/16 09:11:42;;;;;;;1.02;0.80;;;;;;;15.64;79.44;99159.75;5137471;27;20118;-62
2023/05/16 09:14:11;;;;;;;0.77;0.77;;;;;;;15.64;79.67;99160.59;5135813;27;20075;-61
2023/05/16 09:16:40;;;;;;;1.27;1.05;;;;;;;15.64;79.37;99163.16;5137241;27;20031;-62
2023/05/16 09:19:13;;;;;;;1.52;1.42;;;;;;;15.66;79.67;99165.69;5137270;27;20438;-62
2023/05/16 09:21:42;;;;;;;1.58;1.48;;;;;;;15.66;80.13;99174.25;5136720;27;20596;-63
2023/05/16 09:24:11;;;;;;;0.63;0.63;;;;;;;15.70;80.84;99162.97;5137186;27;20043;-63
2023/05/16 09:26:39;;;;;;;0.43;0.43;;;;;;;15.69;81.14;99160.44;5137142;27;20518;-62
2023/05/16 09:29:14;;;;;;;0.98;0.88;;;;;;;15.70;81.21;99157.81;5135889;27;20039;-63
2023/05/16 09:31:42;;;;;;;0.93;0.85;;;;;;;15.72;82.13;99143.16;5137054;27;20039;-62
2023/05/16 09:34:11;;;;;;;0.82;0.82;;;;;;;15.78;83.05;99157.59;5136780;27;20046;-62
2023/05/16 09:36:41;;;;;;;0.63;0.63;;;;;;;15.80;83.02;99159.22;5136902;27;20050;-63
2023/05/16 09:39:15;;;;;;;1.40;1.27;;;;;;;15.82;83.64;99159.19;5136761;27;20051;-63
2023/05/16 09:41:44;;;;;;;1.15;1.05;;;;;;;15.79;83.55;99149.81;5136926;27;20485;-62
2023/05/16 09:44:15;;;;;;;2.17;0.93;;;;;;;15.78;83.92;99155.88;5129113;27;20393;-62
2023/05/16 09:46:43;;;;;;;1.25;1.15;;;;;;;15.80;83.53;99141.22;5116190;28;20123;-62
2023/05/16 09:49:14;;;;;;;0.95;0.82;;;;;;;15.84;83.62;99137.66;5116109;28;20100;-62
2023/05/16 09:51:44;;;;;;;0.60;0.60;;;;;;;15.86;83.81;99125.56;5116020;28;20086;-62
2023/05/16 09:54:14;;;;;;;0.90;0.90;;;;;;;15.90;83.75;99116.91;5115668;28;20521;-62
2023/05/16 09:56:50;;;;;;;0.50;0.50;;;;;;;15.95;83.94;99109.88;5130471;27;20051;-62
2023/05/16 09:59:22;;;;;;;0.75;0.75;;;;;;;16.01;84.21;99108.81;5136367;27;20035;-62
2023/05/16 10:01:53;;;;;;;1.25;1.13;;;;;;;16.07;83.79;99101.75;5136910;27;20042;-61
2023/05/16 10:04:22;;;;;;;0.45;0.45;;;;;;;16.14;84.15;99098.97;5136452;27;20542;-61
2023/05/16 10:06:51;;;;;;;2.35;1.73;;;;;;;16.15;84.11;99100.66;5136331;27;20053;-62
2023/05/16 10:09:22;;;;;;;0.73;0.70;;;;;;;16.12;83.93;99093.03;5136147;27;20039;-62
2023/05/16 10:11:52;;;;;;;1.98;1.02;;;;;;;16.05;83.13;99070.06;5136246;27;20048;-62
2023/05/16 10:14:25;;;;;;;0.85;0.80;;;;;;;16.07;83.03;99078.59;5136460;27;20476;-63
2023/05/16 10:16:54;;;;;;;0.90;0.90;;;;;;;16.11;82.97;99071.59;5136183;27;20047;-61
2023/05/16 10:19:26;;;;;;;3.10;1.70;;;;;;;16.02;82.60;99065.03;5136484;27;20054;-62
2023/05/16 10:22:00;;;;;;;1.05;0.95;;;;;;;16.02;82.33;99079.63;5136194;27;20370;-62
2023/05/16 10:24:36;;;;;;;1.88;1.23;;;;;;;15.98;82.13;99084.00;5136463;27;20043;-63
2023/05/16 10:27:06;;;;;;;0.95;0.85;;;;;;;15.99;82.13;99085.72;5136010;27;20046;-63
2023/05/16 10:29:38;;;;;;;1.08;0.98;;;;;;;16.01;81.65;99072.78;5135993;27;20068;-63
2023/05/16 10:32:24;;;;;;;3.50;1.08;;;;;;;15.94;81.16;99082.44;5136256;27;20126;-63
2023/05/16 10:34:54;;;;;;;0.60;0.60;;;;;;;15.91;81.20;99077.38;5136105;27;20497;-63
2023/05/16 10:37:25;;;;;;;1.40;1.27;;;;;;;15.95;81.11;99079.00;5135354;27;20079;-62
2023/05/16 10:39:54;;;;;;;1.20;1.02;;;;;;;16.00;81.50;99071.94;5135756;27;20111;-62
2023/05/16 10:42:23;;;;;;;1.10;0.98;;;;;;;16.02;80.88;99069.31;5135748;27;20039;-62
2023/05/16 10:45:08;;;;;;;0.83;0.83;;;;;;;16.04;80.73;99055.50;5135573;27;20035;-62
2023/05/16 10:47:38;;;;;;;0.93;0.93;;;;;;;16.04;80.55;99057.25;5135558;27;20295;-61
2023/05/16 10:50:07;;;;;;;0.70;0.70;;;;;;;16.02;80.07;99059.88;5135538;27;20163;-62
2023/05/16 10:52:36;;;;;;;1.17;1.00;;;;;;;16.01;79.74;99068.47;5135450;27;20138;-61
2023/05/16 10:55:06;;;;;;;0.70;0.70;;;;;;;16.08;80.12;99082.84;5135366;27;20046;-61
2023/05/16 10:57:35;;;;;;;1.25;1.15;;;;;;;16.09;80.37;99087.09;5135478;27;20043;-61
2023/05/16 11:00:22;;;;;;;0.75;0.75;;;;;;;16.01;80.40;99076.19;5135627;27;20050;-62
2023/05/16 11:02:51;;;;;;;1.15;0.93;;;;;;;15.99;80.66;99085.72;5135642;27;20138;-62
2023/05/16 11:05:20;;;;;;;1.10;1.00;;;;;;;15.96;80.28;99096.09;5134229;27;20123;-62
2023/05/16 11:08:04;;;;;;;0.93;0.82;;;;;;;15.99;80.69;99105.44;5135132;27;20497;-62
2023/05/16 11:10:33;;;;;;;0.75;0.75;;;;;;;15.94;81.49;99117.63;5135442;27;20078;-61
2023/05/16 11:13:08;;;;;;;0.73;0.70;;;;;;;15.93;82.20;99119.34;5135034;27;20072;-61
2023/05/16 11:15:39;;;;;;;1.90;1.42;;;;;;;15.90;82.86;99114.31;5135127;27;20043;-62
2023/05/16 11:18:09;;;;;;;1.45;1.23;;;;;;;15.83;83.22;99120.56;5134949;27;20488;-62
2023/05/16 11:20:40;;;;;;;0.73;0.73;;;;;;;15.75;83.29;99137.94;5135362;27;20134;-61
2023/05/16 11:23:20;;;;;;;1.08;0.88;;;;;;;15.71;83.76;99141.50;5135337;27;20043;-62
2023/05/16 11:25:52;;;;;;;1.33;1.23;;;;;;;15.60;83.98;99122.97;5134856;27;20073;-61
2023/05/16 11:28:23;;;;;;;1.33;1.10;;;;;;;15.62;84.67;99130.66;5135290;27;20043;-61
2023/05/16 11:30:56;;;;;;;1.45;1.10;;;;;;;15.60;85.23;99133.25;5135203;27;20051;-61
2023/05/16 11:33:28;;;;;;;2.28;1.83;;;;;;;15.52;86.09;99137.78;5134822;27;20047;-61
2023/05/16 11:36:01;;;;;;;0.75;0.75;;;;;;;15.46;86.36;99140.53;5134780;27;20053;-61
2023/05/16 11:38:44;;;;;;;1.20;1.10;;;;;;;15.35;86.78;99142.53;5134492;27;20124;-61
2023/05/16 11:41:15;;;;;;;1.85;1.17;;;;;;;15.28;86.84;99130.75;5134682;27;20043;-61
2023/05/16 11:43:45;;;;;;;0.60;0.60;;;;;;;15.26;87.30;99142.81;5134657;27;20051;-61
2023/05/16 11:46:16;;;;;;;0.70;0.70;;;;;;;15.14;88.33;99140.59;5134710;27;20488;-61
2023/05/16 11:48:46;;;;;;;1.08;0.98;;;;;;;15.14;88.24;99138.00;5134615;27;20063;-62